createdAt,value
2018-06-10T00:01:20.725Z,27.00
2018-06-10T00:03:49.295Z,27.33
2018-06-10T00:06:17.444Z,22.63
2018-06-10T00:08:45.994Z,22.00
2018-06-10T00:11:14.534Z,22.40
2018-06-10T00:13:43.059Z,22.63
2018-06-10T00:16:11.645Z,23.67
2018-06-10T00:18:40.191Z,23.57
2018-06-10T00:21:08.756Z,23.30
2018-06-10T00:23:37.283Z,23.67
2018-06-10T00:26:05.934Z,22.70
2018-06-10T00:28:39.689Z,27.40
2018-06-10T00:31:08.254Z,25.97
2018-06-10T00:33:36.755Z,24.90
2018-06-10T00:36:05.349Z,25.40
2018-06-10T00:38:33.874Z,26.17
2018-06-10T00:41:02.379Z,21.43
2018-06-10T00:43:31.399Z,23.37
2018-06-10T00:45:59.922Z,23.73
2018-06-10T00:48:28.467Z,22.87
2018-06-10T00:50:58.038Z,26.57
2018-06-10T00:53:26.619Z,26.10
2018-06-10T00:55:55.094Z,22.77
2018-06-10T00:58:23.607Z,25.23
2018-06-10T01:00:52.100Z,27.83
2018-06-10T01:03:20.647Z,23.67
2018-06-10T01:05:49.188Z,22.40
2018-06-10T01:08:17.689Z,26.67
2018-06-10T01:10:46.200Z,26.33
2018-06-10T01:13:14.714Z,25.80
2018-06-10T01:15:43.082Z,27.50
2018-06-10T01:18:11.245Z,26.07
2018-06-10T01:20:40.766Z,26.57
2018-06-10T01:23:09.258Z,27.47
2018-06-10T01:25:37.798Z,23.63
2018-06-10T01:28:07.339Z,28.53
2018-06-10T01:30:35.827Z,28.00
2018-06-10T01:33:04.359Z,25.13
2018-06-10T01:35:32.851Z,28.40
2018-06-10T01:38:01.386Z,30.47
2018-06-10T01:40:29.895Z,26.10
2018-06-10T01:42:58.418Z,29.40
2018-06-10T01:45:26.924Z,30.30
2018-06-10T01:47:55.436Z,25.80
2018-06-10T01:50:24.958Z,25.63
2018-06-10T01:52:53.483Z,27.27
2018-06-10T01:55:22.007Z,32.30
2018-06-10T01:57:50.822Z,27.23
2018-06-10T02:00:20.374Z,30.43
2018-06-10T02:02:49.003Z,31.67
2018-06-10T02:05:17.551Z,27.60
2018-06-10T02:07:46.054Z,27.27
2018-06-10T02:10:14.589Z,26.23
2018-06-10T02:12:43.102Z,26.60
2018-06-10T02:15:11.620Z,27.60
2018-06-10T02:17:40.810Z,26.50
2018-06-10T02:20:09.306Z,25.57
2018-06-10T02:22:38.903Z,26.27
2018-06-10T02:25:07.057Z,24.50
2018-06-10T02:27:35.589Z,29.07
2018-06-10T02:30:05.163Z,26.87
2018-06-10T02:32:33.731Z,25.80
2018-06-10T02:35:02.254Z,25.93
2018-06-10T02:37:30.936Z,25.00
2018-06-10T02:39:59.467Z,24.63
2018-06-10T02:42:27.998Z,25.40
2018-06-10T02:44:56.507Z,23.63
2018-06-10T02:47:24.983Z,24.63
2018-06-10T02:49:53.509Z,23.93
2018-06-10T02:52:22.022Z,27.67
2018-06-10T02:54:50.514Z,23.40
2018-06-10T02:57:18.998Z,23.37
2018-06-10T02:59:47.511Z,23.37
2018-06-10T03:02:15.991Z,27.23
2018-06-10T03:04:44.493Z,24.43
2018-06-10T03:07:12.974Z,23.63
2018-06-10T03:09:41.451Z,22.60
2018-06-10T03:12:10.003Z,25.60
2018-06-10T03:14:38.522Z,26.37
2018-06-10T03:17:06.705Z,25.10
2018-06-10T03:19:35.172Z,31.63
2018-06-10T03:22:03.757Z,24.53
2018-06-10T03:24:32.236Z,24.67
2018-06-10T03:27:00.427Z,27.53
2018-06-10T03:29:28.912Z,23.73
2018-06-10T03:31:58.469Z,24.90
2018-06-10T03:34:27.007Z,28.57
2018-06-10T03:36:55.514Z,26.33
2018-06-10T03:39:24.056Z,26.20
2018-06-10T03:41:52.587Z,27.73
2018-06-10T03:44:21.091Z,26.77
2018-06-10T03:46:50.614Z,25.63
2018-06-10T03:49:19.370Z,25.87
2018-06-10T03:51:47.862Z,26.10
2018-06-10T03:54:16.033Z,28.37
2018-06-10T03:56:45.195Z,29.40
2018-06-10T03:59:13.814Z,25.03
2018-06-10T04:01:41.994Z,31.00
2018-06-10T04:04:10.471Z,28.20
2018-06-10T04:06:38.654Z,26.23
2018-06-10T04:09:07.930Z,29.97
2018-06-10T04:11:36.467Z,26.70
2018-06-10T04:14:04.994Z,28.40
2018-06-10T04:16:33.531Z,25.50
2018-06-10T04:19:02.023Z,24.87
2018-06-10T04:21:30.535Z,27.63
2018-06-10T04:23:59.042Z,27.83
2018-06-10T04:26:27.547Z,26.37
2018-06-10T04:28:56.074Z,33.17
2018-06-10T04:31:24.562Z,35.13
2018-06-10T04:33:52.753Z,25.73
2018-06-10T04:36:21.255Z,27.37
2018-06-10T04:38:49.771Z,29.30
2018-06-10T04:41:18.274Z,30.73
2018-06-10T04:43:46.455Z,26.23
2018-06-10T04:46:14.610Z,27.30
2018-06-10T04:48:43.070Z,26.83
2018-06-10T04:51:11.588Z,29.33
2018-06-10T04:53:40.075Z,24.80
2018-06-10T04:56:08.625Z,27.37
2018-06-10T04:58:37.142Z,26.13
2018-06-10T05:01:05.663Z,27.03
2018-06-10T05:03:35.174Z,28.47
2018-06-10T05:06:03.670Z,25.70
2018-06-10T05:08:32.183Z,28.03
2018-06-10T05:11:00.365Z,25.97
2018-06-10T05:13:28.930Z,26.60
2018-06-10T05:15:57.091Z,28.27
2018-06-10T05:18:26.618Z,27.00
2018-06-10T05:20:55.162Z,27.33
2018-06-10T05:23:23.662Z,27.67
2018-06-10T05:25:52.209Z,28.20
2018-06-10T05:28:20.728Z,26.23
2018-06-10T05:30:49.231Z,27.13
2018-06-10T05:33:17.720Z,27.50
2018-06-10T05:35:46.247Z,32.67
2018-06-10T05:38:14.772Z,26.43
2018-06-10T05:40:43.306Z,28.70
2018-06-10T05:43:11.799Z,27.70
2018-06-10T05:45:40.342Z,31.13
2018-06-10T05:48:09.877Z,26.40
2018-06-10T05:50:38.407Z,25.60
2018-06-10T05:53:06.894Z,28.23
2018-06-10T05:55:35.431Z,27.33
2018-06-10T05:58:04.959Z,27.57
2018-06-10T06:00:33.436Z,29.47
2018-06-10T06:03:01.946Z,26.60
2018-06-10T06:05:30.442Z,27.33
2018-06-10T06:07:58.964Z,26.30
2018-06-10T06:10:27.490Z,29.73
2018-06-10T06:12:56.015Z,29.30
2018-06-10T06:15:24.534Z,27.20
2018-06-10T06:17:53.058Z,27.50
2018-06-10T06:20:21.643Z,27.90
2018-06-10T06:22:50.171Z,27.07
2018-06-10T06:25:18.673Z,26.43
2018-06-10T06:27:47.174Z,28.40
2018-06-10T06:30:15.706Z,30.37
2018-06-10T06:32:44.191Z,25.70
2018-06-10T06:35:12.715Z,29.03
2018-06-10T06:37:41.199Z,27.43
2018-06-10T06:40:09.815Z,29.57
2018-06-10T06:42:37.942Z,29.53
2018-06-10T06:45:06.450Z,28.30
2018-06-10T06:47:35.041Z,27.13
2018-06-10T06:50:03.663Z,27.93
2018-06-10T06:52:32.171Z,27.07
2018-06-10T06:55:00.671Z,28.03
2018-06-10T06:57:29.231Z,28.00
2018-06-10T06:59:57.923Z,29.97
2018-06-10T07:02:26.484Z,26.17
2018-06-10T07:04:54.987Z,29.93
2018-06-10T07:07:23.494Z,27.43
2018-06-10T07:09:51.970Z,26.03
2018-06-10T07:12:20.540Z,31.30
2018-06-10T07:14:49.022Z,26.77
2018-06-10T07:17:17.531Z,24.87
2018-06-10T07:19:46.032Z,25.87
2018-06-10T07:22:14.552Z,25.83
2018-06-10T07:24:43.056Z,27.80
2018-06-10T07:27:11.546Z,25.87
2018-06-10T07:29:40.104Z,25.37
2018-06-10T07:32:08.603Z,25.67
2018-06-10T07:34:36.796Z,26.07
2018-06-10T07:37:05.288Z,24.43
2018-06-10T07:39:33.843Z,23.90
2018-06-10T07:42:02.023Z,25.60
2018-06-10T07:44:30.564Z,24.10
2018-06-10T07:46:59.048Z,24.33
2018-06-10T07:49:27.518Z,25.50
2018-06-10T07:51:56.158Z,25.70
2018-06-10T07:54:24.686Z,24.30
2018-06-10T07:56:53.200Z,25.07
2018-06-10T07:59:21.350Z,22.83
2018-06-10T08:01:49.903Z,23.67
2018-06-10T08:04:19.271Z,24.17
2018-06-10T08:06:47.819Z,24.53
2018-06-10T08:09:16.337Z,22.03
2018-06-10T08:11:44.845Z,22.70
2018-06-10T08:14:13.344Z,24.50
2018-06-10T08:16:41.874Z,22.87
2018-06-10T08:19:10.541Z,22.13
2018-06-10T08:21:40.040Z,21.87
2018-06-10T08:24:08.600Z,20.10
2018-06-10T08:26:37.142Z,21.83
2018-06-10T08:29:05.957Z,22.10
2018-06-10T08:31:34.475Z,22.70
2018-06-10T08:34:03.006Z,22.60
2018-06-10T08:36:31.509Z,21.47
2018-06-10T08:38:59.986Z,22.03
2018-06-10T08:41:28.500Z,20.33
2018-06-10T08:43:56.739Z,22.73
2018-06-10T08:46:25.211Z,21.53
2018-06-10T08:48:53.826Z,21.50
2018-06-10T08:51:22.353Z,20.30
2018-06-10T08:53:50.866Z,19.17
2018-06-10T08:56:19.423Z,19.20
2018-06-10T08:58:47.934Z,19.53
2018-06-10T09:01:16.430Z,20.23
2018-06-10T09:03:44.942Z,20.87
2018-06-10T09:06:13.438Z,19.50
2018-06-10T09:08:42.029Z,18.93
2018-06-10T09:11:10.447Z,18.63
2018-06-10T09:13:38.973Z,18.03
2018-06-10T09:16:07.562Z,19.30
2018-06-10T09:18:36.074Z,20.77
2018-06-10T09:21:05.598Z,19.30
2018-06-10T09:23:34.126Z,18.70
2018-06-10T09:26:02.737Z,20.90
2018-06-10T09:28:31.235Z,21.17
2018-06-10T09:30:59.735Z,20.43
2018-06-10T09:33:27.899Z,21.13
2018-06-10T09:35:56.449Z,20.33
2018-06-10T09:38:24.966Z,21.30
2018-06-10T09:40:53.501Z,20.63
2018-06-10T09:43:22.004Z,20.57
2018-06-10T09:45:50.519Z,19.57
2018-06-10T09:48:18.673Z,20.10
2018-06-10T09:50:47.203Z,18.80
2018-06-10T09:53:15.723Z,22.63
2018-06-10T09:55:44.208Z,19.00
2018-06-10T09:58:12.858Z,20.23
2018-06-10T10:00:41.467Z,19.40
2018-06-10T10:03:09.992Z,20.30
2018-06-10T10:05:38.527Z,18.77
2018-06-10T10:08:07.068Z,18.37
2018-06-10T10:10:35.582Z,18.87
2018-06-10T10:13:04.133Z,21.03
2018-06-10T10:15:32.686Z,18.03
2018-06-10T10:18:01.211Z,20.30
2018-06-10T10:20:29.740Z,18.63
2018-06-10T10:22:57.886Z,18.30
2018-06-10T10:25:26.429Z,17.93
2018-06-10T10:27:54.988Z,17.97
2018-06-10T10:30:23.551Z,17.23
2018-06-10T10:32:52.081Z,17.90
2018-06-10T10:35:20.582Z,15.70
2018-06-10T10:37:49.100Z,16.57
2018-06-10T10:40:17.650Z,18.37
2018-06-10T10:42:46.160Z,18.33
2018-06-10T10:45:14.393Z,17.03
2018-06-10T10:47:42.919Z,16.57
2018-06-10T10:50:12.500Z,17.17
2018-06-10T10:52:41.450Z,18.07
2018-06-10T10:55:10.990Z,16.63
2018-06-10T10:57:40.556Z,17.73
2018-06-10T11:00:10.792Z,18.20
2018-06-10T11:02:39.327Z,17.23
2018-06-10T11:05:07.847Z,16.90
2018-06-10T11:07:36.355Z,16.87
2018-06-10T11:10:04.908Z,15.53
2018-06-10T11:12:33.438Z,15.00
2018-06-10T11:15:02.003Z,17.33
2018-06-10T11:17:30.530Z,16.00
2018-06-10T11:19:59.038Z,15.60
2018-06-10T11:22:27.569Z,16.20
2018-06-10T11:24:55.723Z,15.70
2018-06-10T11:27:24.266Z,15.20
2018-06-10T11:29:52.734Z,16.27
2018-06-10T11:32:21.261Z,15.60
2018-06-10T11:34:49.766Z,14.13
2018-06-10T11:37:18.286Z,16.37
2018-06-10T11:39:47.823Z,16.67
2018-06-10T11:42:16.344Z,14.93
2018-06-10T11:44:44.850Z,15.80
2018-06-10T11:47:13.342Z,16.30
2018-06-10T11:49:41.842Z,17.13
2018-06-10T11:52:11.435Z,15.73
2018-06-10T11:54:39.967Z,15.53
2018-06-10T11:57:09.417Z,16.67
2018-06-10T11:59:38.873Z,14.53
2018-06-10T12:02:08.423Z,15.57
2018-06-10T12:04:38.198Z,15.33
2018-06-10T12:07:07.820Z,15.20
2018-06-10T12:09:37.530Z,14.10
2018-06-10T12:12:09.089Z,15.27
2018-06-10T12:14:38.585Z,15.37
2018-06-10T12:17:07.867Z,15.13
2018-06-10T12:19:37.326Z,14.10
2018-06-10T12:22:06.849Z,14.80
2018-06-10T12:24:36.475Z,14.30
2018-06-10T12:27:05.291Z,14.40
2018-06-10T12:29:33.795Z,13.13
2018-06-10T12:32:02.315Z,14.17
2018-06-10T12:34:30.854Z,13.87
2018-06-10T12:36:59.390Z,14.27
2018-06-10T12:39:27.886Z,14.10
2018-06-10T12:41:56.398Z,13.70
2018-06-10T12:44:24.946Z,14.87
2018-06-10T12:46:53.466Z,13.20
2018-06-10T12:49:23.026Z,14.63
2018-06-10T12:51:51.546Z,14.47
2018-06-10T12:54:20.050Z,13.63
2018-06-10T12:56:48.602Z,11.87
2018-06-10T12:59:18.138Z,15.43
2018-06-10T13:01:46.646Z,14.07
2018-06-10T13:04:15.230Z,14.33
2018-06-10T13:06:43.694Z,14.60
2018-06-10T13:09:12.201Z,18.53
2018-06-10T13:11:40.708Z,14.50
2018-06-10T13:14:09.195Z,12.57
2018-06-10T13:16:37.729Z,14.03
2018-06-10T13:19:06.375Z,13.27
2018-06-10T13:21:34.882Z,12.90
2018-06-10T13:24:05.380Z,12.90
2018-06-10T13:26:34.802Z,14.70
2018-06-10T13:29:03.537Z,13.40
2018-06-10T13:31:32.077Z,13.27
2018-06-10T13:34:01.659Z,13.43
2018-06-10T13:36:31.940Z,12.90
2018-06-10T13:39:00.527Z,12.70
2018-06-10T13:41:29.181Z,12.20
2018-06-10T13:43:57.792Z,12.83
2018-06-10T13:46:26.307Z,13.30
2018-06-10T13:48:54.823Z,14.27
2018-06-10T13:51:23.319Z,13.10
2018-06-10T13:53:51.987Z,17.13
2018-06-10T13:56:20.527Z,13.17
2018-06-10T13:58:49.023Z,13.33
2018-06-10T14:01:17.567Z,16.47
2018-06-10T14:03:48.076Z,15.90
2018-06-10T14:06:16.583Z,12.00
2018-06-10T14:08:45.098Z,14.60
2018-06-10T14:11:13.297Z,14.93
2018-06-10T14:13:41.805Z,14.60
2018-06-10T14:16:10.306Z,15.30
2018-06-10T14:18:40.973Z,13.23
2018-06-10T14:21:09.558Z,14.57
2018-06-10T14:23:38.144Z,12.30
2018-06-10T14:26:07.663Z,12.13
2018-06-10T14:28:36.179Z,12.93
2018-06-10T14:31:04.714Z,13.73
2018-06-10T14:33:33.223Z,12.93
2018-06-10T14:36:01.699Z,11.30
2018-06-10T14:38:30.198Z,13.10
2018-06-10T14:40:58.727Z,13.80
2018-06-10T14:43:27.243Z,11.33
2018-06-10T14:45:55.775Z,12.37
2018-06-10T14:48:23.934Z,11.80
2018-06-10T14:50:52.457Z,11.20
2018-06-10T14:53:20.956Z,12.13
2018-06-10T14:55:50.483Z,11.47
2018-06-10T14:58:18.970Z,12.00
2018-06-10T15:00:47.485Z,10.90
2018-06-10T15:03:15.985Z,12.93
2018-06-10T15:05:45.474Z,11.60
2018-06-10T15:08:13.647Z,12.47
2018-06-10T15:10:42.124Z,10.07
2018-06-10T15:13:10.806Z,11.10
2018-06-10T15:15:38.990Z,11.50
2018-06-10T15:18:07.520Z,11.50
2018-06-10T15:20:36.116Z,10.73
2018-06-10T15:23:04.603Z,12.03
2018-06-10T15:25:34.169Z,12.07
2018-06-10T15:28:02.778Z,11.07
2018-06-10T15:30:31.316Z,11.70
2018-06-10T15:32:59.813Z,11.40
2018-06-10T15:35:29.359Z,11.20
2018-06-10T15:37:57.862Z,10.77
2018-06-10T15:40:26.367Z,10.63
2018-06-10T15:42:54.890Z,11.00
2018-06-10T15:45:24.400Z,10.70
2018-06-10T15:47:52.910Z,11.07
2018-06-10T15:50:21.460Z,9.83
2018-06-10T15:52:49.931Z,10.97
2018-06-10T15:55:18.422Z,13.00
2018-06-10T15:57:46.928Z,10.27
2018-06-10T16:00:15.431Z,10.23
2018-06-10T16:02:43.919Z,10.57
2018-06-10T16:05:12.443Z,11.13
2018-06-10T16:07:40.923Z,11.77
2018-06-10T16:10:09.515Z,11.27
2018-06-10T16:12:38.028Z,10.00
2018-06-10T16:15:06.587Z,9.23
2018-06-10T16:17:36.104Z,11.73
2018-06-10T16:20:04.712Z,10.57
2018-06-10T16:22:33.243Z,10.53
2018-06-10T16:25:01.775Z,10.13
2018-06-10T16:27:30.302Z,10.03
2018-06-10T16:29:58.766Z,9.73
2018-06-10T16:32:27.388Z,10.70
2018-06-10T16:34:55.874Z,9.67
2018-06-10T16:37:25.459Z,9.43
2018-06-10T16:39:53.986Z,9.27
2018-06-10T16:42:22.504Z,9.97
2018-06-10T16:44:50.994Z,9.17
2018-06-10T16:47:20.523Z,9.87
2018-06-10T16:49:49.111Z,10.53
2018-06-10T16:52:17.613Z,9.33
2018-06-10T16:54:46.198Z,10.17
2018-06-10T16:57:15.730Z,10.13
2018-06-10T16:59:44.246Z,10.00
2018-06-10T17:02:12.750Z,10.50
2018-06-10T17:04:41.278Z,9.27
2018-06-10T17:07:09.810Z,9.70
2018-06-10T17:09:38.334Z,10.03
2018-06-10T17:12:06.859Z,9.57
2018-06-10T17:14:35.398Z,9.00
2018-06-10T17:17:04.312Z,10.50
2018-06-10T17:19:32.799Z,8.83
2018-06-10T17:22:01.283Z,9.80
2018-06-10T17:24:30.848Z,8.47
2018-06-10T17:26:59.345Z,9.97
2018-06-10T17:29:27.833Z,9.17
2018-06-10T17:31:56.402Z,9.10
2018-06-10T17:34:25.014Z,8.97
2018-06-10T17:36:53.509Z,8.67
2018-06-10T17:39:22.019Z,9.00
2018-06-10T17:41:51.558Z,9.60
2018-06-10T17:44:20.100Z,9.87
2018-06-10T17:46:48.623Z,8.70
2018-06-10T17:49:17.170Z,9.80
2018-06-10T17:51:45.682Z,8.30
2018-06-10T17:54:14.207Z,9.70
2018-06-10T17:56:42.755Z,8.73
2018-06-10T17:59:17.428Z,8.97
2018-06-10T18:01:45.908Z,8.10
2018-06-10T18:04:14.430Z,8.87
2018-06-10T18:06:43.013Z,9.03
2018-06-10T18:09:11.480Z,8.90
2018-06-10T18:11:39.998Z,8.97
2018-06-10T18:14:09.559Z,8.63
2018-06-10T18:16:38.067Z,7.93
2018-06-10T18:19:06.804Z,8.87
2018-06-10T18:21:35.379Z,7.73
2018-06-10T18:24:03.947Z,8.67
2018-06-10T18:26:32.524Z,8.63
2018-06-10T18:29:01.079Z,8.20
2018-06-10T18:31:29.262Z,8.10
2018-06-10T18:33:57.798Z,8.60
2018-06-10T18:36:26.422Z,9.50
2018-06-10T18:38:54.983Z,7.50
2018-06-10T18:41:23.483Z,8.40
2018-06-10T18:43:51.978Z,8.20
2018-06-10T18:46:20.490Z,7.37
2018-06-10T18:48:50.016Z,8.33
2018-06-10T18:51:18.519Z,9.07
2018-06-10T18:53:47.015Z,7.20
2018-06-10T18:56:15.594Z,8.97
2018-06-10T18:58:44.163Z,7.37
2018-06-10T19:01:12.338Z,8.50
2018-06-10T19:03:40.477Z,7.97
2018-06-10T19:06:09.021Z,7.93
2018-06-10T19:08:37.607Z,7.93
2018-06-10T19:11:06.191Z,7.53
2018-06-10T19:13:35.712Z,7.87
2018-06-10T19:16:04.211Z,7.70
2018-06-10T19:18:33.736Z,7.97
2018-06-10T19:21:02.223Z,8.13
2018-06-10T19:23:30.738Z,7.83
2018-06-10T19:25:59.238Z,7.70
2018-06-10T19:28:27.796Z,8.23
2018-06-10T19:30:56.315Z,8.37
2018-06-10T19:33:24.840Z,7.70
2018-06-10T19:35:53.328Z,7.83
2018-06-10T19:38:21.832Z,6.93
2018-06-10T19:40:50.365Z,7.23
2018-06-10T19:43:18.533Z,7.17
2018-06-10T19:45:47.196Z,6.93
2018-06-10T19:48:15.706Z,7.80
2018-06-10T19:50:43.887Z,8.20
2018-06-10T19:53:12.379Z,7.97
2018-06-10T19:55:40.871Z,7.63
2018-06-10T19:58:09.559Z,7.30
2018-06-10T20:00:38.135Z,7.70
2018-06-10T20:03:06.659Z,7.53
2018-06-10T20:05:35.208Z,8.03
2018-06-10T20:08:03.699Z,7.97
2018-06-10T20:10:32.194Z,8.17
2018-06-10T20:13:00.831Z,7.00
2018-06-10T20:15:29.362Z,7.60
2018-06-10T20:17:57.847Z,6.97
2018-06-10T20:20:26.360Z,7.47
2018-06-10T20:22:54.842Z,7.47
2018-06-10T20:25:23.040Z,10.20
2018-06-10T20:27:51.528Z,7.90
2018-06-10T20:30:20.750Z,10.53
2018-06-10T20:32:49.241Z,10.20
2018-06-10T20:35:17.747Z,8.53
2018-06-10T20:37:45.933Z,6.77
2018-06-10T20:40:14.455Z,11.70
2018-06-10T20:42:43.947Z,7.20
2018-06-10T20:45:12.456Z,7.80
2018-06-10T20:47:40.943Z,6.70
2018-06-10T20:50:09.434Z,9.73
2018-06-10T20:52:37.944Z,7.87
2018-06-10T20:55:06.496Z,7.60
2018-06-10T20:57:35.007Z,6.63
2018-06-10T21:00:04.703Z,7.00
2018-06-10T21:02:33.264Z,7.20
2018-06-10T21:05:01.784Z,7.03
2018-06-10T21:07:30.259Z,7.00
2018-06-10T21:09:58.785Z,5.90
2018-06-10T21:12:27.350Z,6.77
2018-06-10T21:14:55.851Z,7.10
2018-06-10T21:17:24.326Z,6.40
2018-06-10T21:19:54.146Z,6.83
2018-06-10T21:22:22.734Z,6.70
2018-06-10T21:24:51.199Z,6.97
2018-06-10T21:27:19.747Z,6.20
2018-06-10T21:29:48.384Z,6.30
2018-06-10T21:32:16.581Z,6.10
2018-06-10T21:34:45.102Z,5.70
2018-06-10T21:37:14.529Z,7.00
2018-06-10T21:39:44.152Z,7.20
2018-06-10T21:42:12.736Z,6.77
2018-06-10T21:44:42.431Z,5.83
2018-06-10T21:47:10.931Z,6.10
2018-06-10T21:49:39.486Z,7.00
2018-06-10T21:52:09.195Z,6.43
2018-06-10T21:54:37.687Z,5.77
2018-06-10T21:57:06.170Z,5.60
2018-06-10T21:59:34.695Z,6.67
2018-06-10T22:02:03.237Z,7.23
2018-06-10T22:04:31.753Z,6.83
2018-06-10T22:07:00.271Z,5.97
2018-06-10T22:09:28.737Z,5.93
2018-06-10T22:11:57.242Z,6.33
2018-06-10T22:14:25.734Z,6.27
2018-06-10T22:16:54.231Z,6.47
2018-06-10T22:19:22.734Z,6.20
2018-06-10T22:21:51.250Z,5.90
2018-06-10T22:24:20.763Z,8.20
2018-06-10T22:26:49.288Z,6.13
2018-06-10T22:29:17.847Z,6.50
2018-06-10T22:31:46.018Z,5.07
2018-06-10T22:34:14.507Z,6.23
2018-06-10T22:36:42.690Z,7.27
2018-06-10T22:39:11.278Z,5.70
2018-06-10T22:41:39.737Z,7.80
2018-06-10T22:44:08.683Z,8.13
2018-06-10T22:46:39.017Z,6.10
2018-06-10T22:49:07.611Z,6.07
2018-06-10T22:51:36.817Z,6.87
2018-06-10T22:55:08.626Z,7.87
2018-06-10T22:57:37.155Z,7.17
2018-06-10T23:00:07.219Z,6.20
2018-06-10T23:02:35.755Z,5.57
2018-06-10T23:05:04.311Z,5.73
2018-06-10T23:07:32.832Z,6.47
2018-06-10T23:10:01.322Z,5.30
2018-06-10T23:12:29.823Z,7.33
2018-06-10T23:14:58.303Z,5.67
2018-06-10T23:17:26.842Z,5.40
2018-06-10T23:19:56.374Z,5.47
2018-06-10T23:22:24.919Z,5.57
2018-06-10T23:24:53.427Z,5.47
2018-06-10T23:27:21.994Z,5.50
2018-06-10T23:29:50.450Z,5.53
2018-06-10T23:32:18.998Z,6.77
2018-06-10T23:34:47.494Z,8.07
2018-06-10T23:37:16.057Z,9.93
2018-06-10T23:39:44.614Z,8.03
2018-06-10T23:42:13.164Z,8.63
2018-06-10T23:44:41.695Z,9.07
2018-06-10T23:47:10.194Z,8.30
2018-06-10T23:49:38.715Z,8.97
2018-06-10T23:52:07.496Z,9.50
2018-06-10T23:54:36.027Z,9.07
2018-06-10T23:57:04.534Z,11.60
2018-06-10T23:59:33.034Z,8.53
